sensor_id;sensor_type;location;lat;lon;timestamp;P1;durP1;ratioP1;P2;durP2;ratioP2
60060;SDS011;45933;51.336;12.612;2022-12-29T00:02:25;2.40;;;1.30;;
60060;SDS011;45933;51.336;12.612;2022-12-29T00:04:50;2.90;;;1.30;;
60060;SDS011;45933;51.336;12.612;2022-12-29T00:07:16;3.07;;;1.53;;
60060;SDS011;45933;51.336;12.612;2022-12-29T00:09:42;3.53;;;1.50;;
60060;SDS011;45933;51.336;12.612;2022-12-29T00:12:07;1.40;;;1.07;;
60060;SDS011;45933;51.336;12.612;2022-12-29T00:14:32;1.77;;;1.20;;
60060;SDS011;45933;51.336;12.612;2022-12-29T00:17:16;2.17;;;1.10;;
60060;SDS011;45933;51.336;12.612;2022-12-29T00:19:41;2.93;;;0.97;;
60060;SDS011;45933;51.336;12.612;2022-12-29T00:22:25;2.03;;;1.20;;
60060;SDS011;45933;51.336;12.612;2022-12-29T00:25:10;1.87;;;1.30;;
60060;SDS011;45933;51.336;12.612;2022-12-29T00:27:55;1.53;;;1.17;;
60060;SDS011;45933;51.336;12.612;2022-12-29T00:30:40;1.40;;;1.10;;
60060;SDS011;45933;51.336;12.612;2022-12-29T00:33:31;1.80;;;1.20;;
60060;SDS011;45933;51.336;12.612;2022-12-29T00:36:17;1.70;;;0.97;;
60060;SDS011;45933;51.336;12.612;2022-12-29T00:38:57;2.73;;;1.10;;
60060;SDS011;45933;51.336;12.612;2022-12-29T00:41:44;1.90;;;1.10;;
60060;SDS011;45933;51.336;12.612;2022-12-29T00:44:28;3.60;;;1.10;;
60060;SDS011;45933;51.336;12.612;2022-12-29T00:46:53;1.20;;;1.10;;
60060;SDS011;45933;51.336;12.612;2022-12-29T00:49:19;1.27;;;1.17;;
60060;SDS011;45933;51.336;12.612;2022-12-29T00:52:00;3.67;;;1.20;;
60060;SDS011;45933;51.336;12.612;2022-12-29T00:54:29;3.27;;;1.53;;
60060;SDS011;45933;51.336;12.612;2022-12-29T00:56:56;2.57;;;1.10;;
60060;SDS011;45933;51.336;12.612;2022-12-29T00:59:21;1.63;;;1.17;;
60060;SDS011;45933;51.336;12.612;2022-12-29T01:01:48;1.83;;;1.13;;
60060;SDS011;45933;51.336;12.612;2022-12-29T01:04:14;1.77;;;1.23;;
60060;SDS011;45933;51.336;12.612;2022-12-29T01:06:40;2.97;;;1.30;;
60060;SDS011;45933;51.336;12.612;2022-12-29T01:09:06;1.30;;;1.20;;
60060;SDS011;45933;51.336;12.612;2022-12-29T01:11:51;1.80;;;1.17;;
60060;SDS011;45933;51.336;12.612;2022-12-29T01:14:17;3.57;;;1.20;;
60060;SDS011;45933;51.336;12.612;2022-12-29T01:16:43;4.00;;;1.20;;
60060;SDS011;45933;51.336;12.612;2022-12-29T01:19:09;2.07;;;1.17;;
60060;SDS011;45933;51.336;12.612;2022-12-29T01:21:34;3.57;;;1.17;;
60060;SDS011;45933;51.336;12.612;2022-12-29T01:24:00;1.60;;;1.10;;
60060;SDS011;45933;51.336;12.612;2022-12-29T01:26:25;2.50;;;1.37;;
60060;SDS011;45933;51.336;12.612;2022-12-29T01:28:50;2.30;;;1.20;;
60060;SDS011;45933;51.336;12.612;2022-12-29T01:31:16;2.43;;;1.33;;
60060;SDS011;45933;51.336;12.612;2022-12-29T01:33:41;1.93;;;1.13;;
60060;SDS011;45933;51.336;12.612;2022-12-29T01:36:08;1.30;;;1.00;;
60060;SDS011;45933;51.336;12.612;2022-12-29T01:38:36;1.70;;;1.10;;
60060;SDS011;45933;51.336;12.612;2022-12-29T01:41:02;2.57;;;1.50;;
60060;SDS011;45933;51.336;12.612;2022-12-29T01:46:07;2.00;;;1.10;;
60060;SDS011;45933;51.336;12.612;2022-12-29T01:48:43;3.37;;;1.60;;
60060;SDS011;45933;51.336;12.612;2022-12-29T01:51:11;2.40;;;1.13;;
60060;SDS011;45933;51.336;12.612;2022-12-29T01:53:36;2.70;;;1.10;;
60060;SDS011;45933;51.336;12.612;2022-12-29T01:56:04;1.73;;;0.83;;
60060;SDS011;45933;51.336;12.612;2022-12-29T01:58:32;1.30;;;1.10;;
60060;SDS011;45933;51.336;12.612;2022-12-29T02:01:03;2.23;;;1.33;;
60060;SDS011;45933;51.336;12.612;2022-12-29T02:03:29;1.43;;;1.30;;
60060;SDS011;45933;51.336;12.612;2022-12-29T02:06:05;2.03;;;1.07;;
60060;SDS011;45933;51.336;12.612;2022-12-29T02:08:36;3.03;;;1.10;;
60060;SDS011;45933;51.336;12.612;2022-12-29T02:11:04;2.93;;;1.37;;
60060;SDS011;45933;51.336;12.612;2022-12-29T02:13:30;2.20;;;1.00;;
60060;SDS011;45933;51.336;12.612;2022-12-29T02:16:01;3.73;;;1.40;;
60060;SDS011;45933;51.336;12.612;2022-12-29T02:18:45;1.67;;;1.20;;
60060;SDS011;45933;51.336;12.612;2022-12-29T02:21:48;2.20;;;1.30;;
60060;SDS011;45933;51.336;12.612;2022-12-29T02:27:17;2.07;;;1.20;;
60060;SDS011;45933;51.336;12.612;2022-12-29T02:30:08;2.73;;;1.40;;
60060;SDS011;45933;51.336;12.612;2022-12-29T02:35:31;2.73;;;1.20;;
60060;SDS011;45933;51.336;12.612;2022-12-29T02:38:04;4.77;;;1.40;;
60060;SDS011;45933;51.336;12.612;2022-12-29T02:40:51;2.77;;;1.20;;
60060;SDS011;45933;51.336;12.612;2022-12-29T02:43:25;2.30;;;1.00;;
60060;SDS011;45933;51.336;12.612;2022-12-29T02:46:04;1.20;;;1.10;;
60060;SDS011;45933;51.336;12.612;2022-12-29T02:48:41;2.77;;;1.00;;
60060;SDS011;45933;51.336;12.612;2022-12-29T02:53:49;2.37;;;1.30;;
60060;SDS011;45933;51.336;12.612;2022-12-29T02:56:35;1.93;;;1.07;;
60060;SDS011;45933;51.336;12.612;2022-12-29T02:59:00;1.70;;;1.40;;
60060;SDS011;45933;51.336;12.612;2022-12-29T03:01:29;2.27;;;1.20;;
60060;SDS011;45933;51.336;12.612;2022-12-29T03:04:38;2.83;;;1.30;;
60060;SDS011;45933;51.336;12.612;2022-12-29T03:07:39;2.23;;;1.50;;
60060;SDS011;45933;51.336;12.612;2022-12-29T03:13:21;3.23;;;1.37;;
60060;SDS011;45933;51.336;12.612;2022-12-29T03:16:46;1.47;;;1.20;;
60060;SDS011;45933;51.336;12.612;2022-12-29T03:19:28;3.13;;;1.50;;
60060;SDS011;45933;51.336;12.612;2022-12-29T03:22:01;1.87;;;1.03;;
60060;SDS011;45933;51.336;12.612;2022-12-29T03:24:50;3.97;;;1.23;;
60060;SDS011;45933;51.336;12.612;2022-12-29T03:27:22;1.60;;;1.00;;
60060;SDS011;45933;51.336;12.612;2022-12-29T03:29:54;2.20;;;1.27;;
60060;SDS011;45933;51.336;12.612;2022-12-29T03:32:26;2.90;;;1.07;;
60060;SDS011;45933;51.336;12.612;2022-12-29T03:34:56;5.53;;;1.30;;
60060;SDS011;45933;51.336;12.612;2022-12-29T03:37:27;4.97;;;1.30;;
60060;SDS011;45933;51.336;12.612;2022-12-29T03:40:00;1.80;;;1.47;;
60060;SDS011;45933;51.336;12.612;2022-12-29T03:42:26;2.13;;;1.30;;
60060;SDS011;45933;51.336;12.612;2022-12-29T03:44:55;2.33;;;1.27;;
60060;SDS011;45933;51.336;12.612;2022-12-29T03:47:21;1.77;;;1.10;;
60060;SDS011;45933;51.336;12.612;2022-12-29T03:49:48;1.87;;;1.40;;
60060;SDS011;45933;51.336;12.612;2022-12-29T03:52:13;2.50;;;1.33;;
60060;SDS011;45933;51.336;12.612;2022-12-29T03:54:39;2.70;;;1.30;;
60060;SDS011;45933;51.336;12.612;2022-12-29T03:57:04;1.60;;;1.30;;
60060;SDS011;45933;51.336;12.612;2022-12-29T03:59:29;2.53;;;1.60;;
60060;SDS011;45933;51.336;12.612;2022-12-29T04:01:54;3.30;;;1.43;;
60060;SDS011;45933;51.336;12.612;2022-12-29T04:04:20;1.40;;;1.10;;
60060;SDS011;45933;51.336;12.612;2022-12-29T04:06:45;1.67;;;1.20;;
60060;SDS011;45933;51.336;12.612;2022-12-29T04:09:10;3.20;;;1.20;;
60060;SDS011;45933;51.336;12.612;2022-12-29T04:11:36;1.57;;;1.00;;
60060;SDS011;45933;51.336;12.612;2022-12-29T04:14:01;2.13;;;1.00;;
60060;SDS011;45933;51.336;12.612;2022-12-29T04:16:26;2.90;;;1.53;;
60060;SDS011;45933;51.336;12.612;2022-12-29T04:18:52;2.47;;;1.50;;
60060;SDS011;45933;51.336;12.612;2022-12-29T04:21:17;2.00;;;1.13;;
60060;SDS011;45933;51.336;12.612;2022-12-29T04:23:42;1.67;;;1.30;;
60060;SDS011;45933;51.336;12.612;2022-12-29T04:26:08;2.97;;;1.10;;
60060;SDS011;45933;51.336;12.612;2022-12-29T04:28:34;3.37;;;1.10;;
60060;SDS011;45933;51.336;12.612;2022-12-29T04:30:59;3.70;;;1.20;;
60060;SDS011;45933;51.336;12.612;2022-12-29T04:33:25;2.80;;;0.97;;
60060;SDS011;45933;51.336;12.612;2022-12-29T04:35:50;4.17;;;1.60;;
60060;SDS011;45933;51.336;12.612;2022-12-29T04:38:19;4.03;;;1.40;;
60060;SDS011;45933;51.336;12.612;2022-12-29T04:40:45;3.70;;;1.10;;
60060;SDS011;45933;51.336;12.612;2022-12-29T04:43:10;3.57;;;1.40;;
60060;SDS011;45933;51.336;12.612;2022-12-29T04:45:36;1.47;;;1.10;;
60060;SDS011;45933;51.336;12.612;2022-12-29T04:48:02;2.27;;;0.93;;
60060;SDS011;45933;51.336;12.612;2022-12-29T04:50:27;1.83;;;1.10;;
60060;SDS011;45933;51.336;12.612;2022-12-29T04:52:53;1.53;;;1.10;;
60060;SDS011;45933;51.336;12.612;2022-12-29T04:55:18;1.93;;;1.10;;
60060;SDS011;45933;51.336;12.612;2022-12-29T04:57:44;3.93;;;1.10;;
60060;SDS011;45933;51.336;12.612;2022-12-29T05:00:09;3.43;;;1.20;;
60060;SDS011;45933;51.336;12.612;2022-12-29T05:02:35;2.63;;;1.10;;
60060;SDS011;45933;51.336;12.612;2022-12-29T05:05:01;2.50;;;1.23;;
60060;SDS011;45933;51.336;12.612;2022-12-29T05:07:27;4.93;;;1.10;;
60060;SDS011;45933;51.336;12.612;2022-12-29T05:09:52;1.33;;;1.00;;
60060;SDS011;45933;51.336;12.612;2022-12-29T05:12:17;1.83;;;1.10;;
60060;SDS011;45933;51.336;12.612;2022-12-29T05:14:43;1.37;;;0.90;;
60060;SDS011;45933;51.336;12.612;2022-12-29T05:17:08;3.10;;;1.10;;
60060;SDS011;45933;51.336;12.612;2022-12-29T05:19:33;2.50;;;1.10;;
60060;SDS011;45933;51.336;12.612;2022-12-29T05:21:58;2.37;;;1.10;;
60060;SDS011;45933;51.336;12.612;2022-12-29T05:24:24;2.27;;;1.10;;
60060;SDS011;45933;51.336;12.612;2022-12-29T05:26:49;2.33;;;1.40;;
60060;SDS011;45933;51.336;12.612;2022-12-29T05:29:14;2.97;;;1.23;;
60060;SDS011;45933;51.336;12.612;2022-12-29T05:31:40;1.20;;;1.00;;
60060;SDS011;45933;51.336;12.612;2022-12-29T05:34:05;2.27;;;1.17;;
60060;SDS011;45933;51.336;12.612;2022-12-29T05:36:30;1.33;;;1.20;;
60060;SDS011;45933;51.336;12.612;2022-12-29T05:38:56;2.20;;;1.20;;
60060;SDS011;45933;51.336;12.612;2022-12-29T05:41:21;2.67;;;1.00;;
60060;SDS011;45933;51.336;12.612;2022-12-29T05:43:46;2.33;;;1.10;;
60060;SDS011;45933;51.336;12.612;2022-12-29T05:46:12;2.87;;;1.10;;
60060;SDS011;45933;51.336;12.612;2022-12-29T05:48:37;2.77;;;1.30;;
60060;SDS011;45933;51.336;12.612;2022-12-29T05:51:02;1.90;;;1.23;;
60060;SDS011;45933;51.336;12.612;2022-12-29T05:53:28;3.27;;;1.20;;
60060;SDS011;45933;51.336;12.612;2022-12-29T05:55:53;3.57;;;1.20;;
60060;SDS011;45933;51.336;12.612;2022-12-29T05:58:18;4.23;;;1.30;;
60060;SDS011;45933;51.336;12.612;2022-12-29T06:00:44;2.47;;;1.23;;
60060;SDS011;45933;51.336;12.612;2022-12-29T06:03:09;3.37;;;1.50;;
60060;SDS011;45933;51.336;12.612;2022-12-29T06:05:34;3.27;;;1.40;;
60060;SDS011;45933;51.336;12.612;2022-12-29T06:08:00;2.60;;;1.83;;
60060;SDS011;45933;51.336;12.612;2022-12-29T06:10:25;3.27;;;1.00;;
60060;SDS011;45933;51.336;12.612;2022-12-29T06:12:50;3.43;;;1.27;;
60060;SDS011;45933;51.336;12.612;2022-12-29T06:15:16;2.00;;;1.30;;
60060;SDS011;45933;51.336;12.612;2022-12-29T06:17:41;1.90;;;1.07;;
60060;SDS011;45933;51.336;12.612;2022-12-29T06:20:07;2.60;;;1.37;;
60060;SDS011;45933;51.336;12.612;2022-12-29T06:22:33;2.30;;;1.00;;
60060;SDS011;45933;51.336;12.612;2022-12-29T06:24:58;1.13;;;0.93;;
60060;SDS011;45933;51.336;12.612;2022-12-29T06:27:23;5.23;;;1.60;;
60060;SDS011;45933;51.336;12.612;2022-12-29T06:29:49;2.73;;;1.10;;
60060;SDS011;45933;51.336;12.612;2022-12-29T06:32:14;1.87;;;1.00;;
60060;SDS011;45933;51.336;12.612;2022-12-29T06:34:40;2.13;;;1.20;;
60060;SDS011;45933;51.336;12.612;2022-12-29T06:37:05;1.60;;;1.20;;
60060;SDS011;45933;51.336;12.612;2022-12-29T06:39:31;1.80;;;1.30;;
60060;SDS011;45933;51.336;12.612;2022-12-29T06:41:56;2.43;;;1.10;;
60060;SDS011;45933;51.336;12.612;2022-12-29T06:44:22;2.33;;;0.87;;
60060;SDS011;45933;51.336;12.612;2022-12-29T06:46:48;3.17;;;1.10;;
60060;SDS011;45933;51.336;12.612;2022-12-29T06:49:14;7.30;;;1.30;;
60060;SDS011;45933;51.336;12.612;2022-12-29T06:51:39;2.90;;;1.27;;
60060;SDS011;45933;51.336;12.612;2022-12-29T06:54:04;2.43;;;1.27;;
60060;SDS011;45933;51.336;12.612;2022-12-29T06:56:30;2.13;;;1.17;;
60060;SDS011;45933;51.336;12.612;2022-12-29T06:58:55;1.73;;;1.20;;
60060;SDS011;45933;51.336;12.612;2022-12-29T07:01:20;2.53;;;1.43;;
60060;SDS011;45933;51.336;12.612;2022-12-29T07:03:46;3.77;;;1.30;;
60060;SDS011;45933;51.336;12.612;2022-12-29T07:06:11;2.17;;;1.40;;
60060;SDS011;45933;51.336;12.612;2022-12-29T07:08:36;1.67;;;1.10;;
60060;SDS011;45933;51.336;12.612;2022-12-29T07:11:03;1.37;;;1.10;;
60060;SDS011;45933;51.336;12.612;2022-12-29T07:13:28;2.93;;;1.30;;
60060;SDS011;45933;51.336;12.612;2022-12-29T07:15:54;2.30;;;1.47;;
60060;SDS011;45933;51.336;12.612;2022-12-29T07:18:19;4.00;;;1.20;;
60060;SDS011;45933;51.336;12.612;2022-12-29T07:20:44;2.50;;;1.20;;
60060;SDS011;45933;51.336;12.612;2022-12-29T07:23:10;1.87;;;1.20;;
60060;SDS011;45933;51.336;12.612;2022-12-29T07:25:35;1.20;;;1.03;;
60060;SDS011;45933;51.336;12.612;2022-12-29T07:28:01;2.63;;;1.20;;
60060;SDS011;45933;51.336;12.612;2022-12-29T07:30:27;2.57;;;1.13;;
60060;SDS011;45933;51.336;12.612;2022-12-29T07:32:53;1.70;;;1.10;;
60060;SDS011;45933;51.336;12.612;2022-12-29T07:35:18;2.00;;;1.30;;
60060;SDS011;45933;51.336;12.612;2022-12-29T07:37:43;2.57;;;0.90;;
60060;SDS011;45933;51.336;12.612;2022-12-29T07:40:09;1.83;;;1.50;;
60060;SDS011;45933;51.336;12.612;2022-12-29T07:42:34;2.33;;;1.30;;
60060;SDS011;45933;51.336;12.612;2022-12-29T07:45:00;3.03;;;1.33;;
60060;SDS011;45933;51.336;12.612;2022-12-29T07:47:25;2.70;;;1.27;;
60060;SDS011;45933;51.336;12.612;2022-12-29T07:49:51;3.03;;;1.30;;
60060;SDS011;45933;51.336;12.612;2022-12-29T07:52:16;2.77;;;1.23;;
60060;SDS011;45933;51.336;12.612;2022-12-29T07:54:41;1.30;;;1.17;;
60060;SDS011;45933;51.336;12.612;2022-12-29T07:57:07;3.47;;;1.30;;
60060;SDS011;45933;51.336;12.612;2022-12-29T07:59:32;2.10;;;1.00;;
60060;SDS011;45933;51.336;12.612;2022-12-29T08:01:57;2.17;;;1.13;;
60060;SDS011;45933;51.336;12.612;2022-12-29T08:04:22;3.37;;;1.60;;
60060;SDS011;45933;51.336;12.612;2022-12-29T08:06:48;2.87;;;1.57;;
60060;SDS011;45933;51.336;12.612;2022-12-29T08:09:13;4.40;;;1.40;;
60060;SDS011;45933;51.336;12.612;2022-12-29T08:11:38;3.03;;;1.37;;
60060;SDS011;45933;51.336;12.612;2022-12-29T08:14:05;2.07;;;1.20;;
60060;SDS011;45933;51.336;12.612;2022-12-29T08:16:30;4.73;;;1.30;;
60060;SDS011;45933;51.336;12.612;2022-12-29T08:18:56;4.33;;;1.60;;
60060;SDS011;45933;51.336;12.612;2022-12-29T08:21:21;3.53;;;1.67;;
60060;SDS011;45933;51.336;12.612;2022-12-29T08:23:47;2.87;;;1.60;;
60060;SDS011;45933;51.336;12.612;2022-12-29T08:26:12;4.97;;;1.63;;
60060;SDS011;45933;51.336;12.612;2022-12-29T08:28:37;2.57;;;1.60;;
60060;SDS011;45933;51.336;12.612;2022-12-29T08:31:03;2.37;;;1.50;;
60060;SDS011;45933;51.336;12.612;2022-12-29T08:33:29;4.00;;;1.50;;
60060;SDS011;45933;51.336;12.612;2022-12-29T08:35:58;2.47;;;1.20;;
60060;SDS011;45933;51.336;12.612;2022-12-29T08:38:25;2.33;;;1.37;;
60060;SDS011;45933;51.336;12.612;2022-12-29T08:40:52;4.00;;;1.43;;
60060;SDS011;45933;51.336;12.612;2022-12-29T08:43:17;3.10;;;1.30;;
60060;SDS011;45933;51.336;12.612;2022-12-29T08:45:42;5.40;;;1.73;;
60060;SDS011;45933;51.336;12.612;2022-12-29T08:48:08;2.13;;;1.30;;
60060;SDS011;45933;51.336;12.612;2022-12-29T08:50:33;1.97;;;1.30;;
60060;SDS011;45933;51.336;12.612;2022-12-29T08:52:58;4.07;;;1.43;;
60060;SDS011;45933;51.336;12.612;2022-12-29T08:55:24;2.78;;;1.75;;
60060;SDS011;45933;51.336;12.612;2022-12-29T08:57:49;3.10;;;1.57;;
60060;SDS011;45933;51.336;12.612;2022-12-29T09:00:14;2.40;;;1.50;;
60060;SDS011;45933;51.336;12.612;2022-12-29T09:02:40;3.33;;;1.60;;
60060;SDS011;45933;51.336;12.612;2022-12-29T09:05:05;2.37;;;1.53;;
60060;SDS011;45933;51.336;12.612;2022-12-29T09:07:31;3.55;;;1.38;;
60060;SDS011;45933;51.336;12.612;2022-12-29T09:09:56;3.67;;;1.67;;
60060;SDS011;45933;51.336;12.612;2022-12-29T09:12:21;4.27;;;1.60;;
60060;SDS011;45933;51.336;12.612;2022-12-29T09:14:46;2.95;;;1.30;;
60060;SDS011;45933;51.336;12.612;2022-12-29T09:17:12;3.22;;;1.20;;
60060;SDS011;45933;51.336;12.612;2022-12-29T09:19:55;4.50;;;1.30;;
60060;SDS011;45933;51.336;12.612;2022-12-29T09:22:21;2.65;;;1.50;;
60060;SDS011;45933;51.336;12.612;2022-12-29T09:24:46;2.67;;;1.33;;
60060;SDS011;45933;51.336;12.612;2022-12-29T09:27:11;1.98;;;1.23;;
60060;SDS011;45933;51.336;12.612;2022-12-29T09:29:36;2.65;;;1.38;;
60060;SDS011;45933;51.336;12.612;2022-12-29T09:32:02;3.70;;;1.40;;
60060;SDS011;45933;51.336;12.612;2022-12-29T09:34:27;3.35;;;1.20;;
60060;SDS011;45933;51.336;12.612;2022-12-29T09:36:52;2.53;;;1.40;;
60060;SDS011;45933;51.336;12.612;2022-12-29T09:39:18;3.08;;;1.73;;
60060;SDS011;45933;51.336;12.612;2022-12-29T09:41:49;1.77;;;1.40;;
60060;SDS011;45933;51.336;12.612;2022-12-29T09:47:14;3.42;;;1.52;;
60060;SDS011;45933;51.336;12.612;2022-12-29T09:49:43;2.95;;;1.30;;
60060;SDS011;45933;51.336;12.612;2022-12-29T09:52:16;3.70;;;1.50;;
60060;SDS011;45933;51.336;12.612;2022-12-29T09:54:58;4.18;;;1.85;;
60060;SDS011;45933;51.336;12.612;2022-12-29T09:57:28;3.90;;;1.70;;
60060;SDS011;45933;51.336;12.612;2022-12-29T10:03:13;2.90;;;1.70;;
60060;SDS011;45933;51.336;12.612;2022-12-29T10:05:56;4.40;;;1.30;;
60060;SDS011;45933;51.336;12.612;2022-12-29T10:08:42;2.80;;;1.30;;
60060;SDS011;45933;51.336;12.612;2022-12-29T10:11:26;3.30;;;1.70;;
60060;SDS011;45933;51.336;12.612;2022-12-29T10:19:45;1.27;;;1.10;;
60060;SDS011;45933;51.336;12.612;2022-12-29T10:25:15;1.95;;;1.05;;
60060;SDS011;45933;51.336;12.612;2022-12-29T10:27:43;1.23;;;0.95;;
60060;SDS011;45933;51.336;12.612;2022-12-29T10:30:12;4.07;;;1.60;;
60060;SDS011;45933;51.336;12.612;2022-12-29T10:32:55;3.17;;;1.42;;
60060;SDS011;45933;51.336;12.612;2022-12-29T10:35:30;2.95;;;1.20;;
60060;SDS011;45933;51.336;12.612;2022-12-29T10:40:45;2.67;;;1.33;;
60060;SDS011;45933;51.336;12.612;2022-12-29T10:43:30;2.88;;;1.30;;
60060;SDS011;45933;51.336;12.612;2022-12-29T10:46:04;2.90;;;1.23;;
60060;SDS011;45933;51.336;12.612;2022-12-29T10:48:35;1.77;;;1.25;;
60060;SDS011;45933;51.336;12.612;2022-12-29T10:51:01;2.13;;;1.10;;
60060;SDS011;45933;51.336;12.612;2022-12-29T10:53:33;2.35;;;1.25;;
60060;SDS011;45933;51.336;12.612;2022-12-29T10:56:05;2.97;;;1.33;;
60060;SDS011;45933;51.336;12.612;2022-12-29T10:58:42;2.20;;;1.02;;
60060;SDS011;45933;51.336;12.612;2022-12-29T11:01:12;3.13;;;1.40;;
60060;SDS011;45933;51.336;12.612;2022-12-29T11:03:46;3.72;;;1.45;;
60060;SDS011;45933;51.336;12.612;2022-12-29T11:06:27;2.40;;;1.45;;
60060;SDS011;45933;51.336;12.612;2022-12-29T11:11:25;3.40;;;2.00;;
60060;SDS011;45933;51.336;12.612;2022-12-29T11:14:14;4.30;;;1.98;;
60060;SDS011;45933;51.336;12.612;2022-12-29T11:16:43;2.53;;;0.98;;
60060;SDS011;45933;51.336;12.612;2022-12-29T11:19:22;2.45;;;1.10;;
60060;SDS011;45933;51.336;12.612;2022-12-29T11:21:49;3.35;;;1.00;;
60060;SDS011;45933;51.336;12.612;2022-12-29T11:24:26;6.05;;;1.30;;
60060;SDS011;45933;51.336;12.612;2022-12-29T11:26:53;1.90;;;0.80;;
60060;SDS011;45933;51.336;12.612;2022-12-29T11:31:50;1.45;;;1.17;;
60060;SDS011;45933;51.336;12.612;2022-12-29T11:34:24;2.17;;;1.70;;
60060;SDS011;45933;51.336;12.612;2022-12-29T11:36:52;1.73;;;0.80;;
60060;SDS011;45933;51.336;12.612;2022-12-29T11:39:25;2.50;;;0.88;;
60060;SDS011;45933;51.336;12.612;2022-12-29T11:41:55;3.80;;;0.90;;
60060;SDS011;45933;51.336;12.612;2022-12-29T11:44:22;2.75;;;1.60;;
60060;SDS011;45933;51.336;12.612;2022-12-29T11:46:48;5.70;;;3.53;;
60060;SDS011;45933;51.336;12.612;2022-12-29T11:49:20;5.93;;;2.85;;
60060;SDS011;45933;51.336;12.612;2022-12-29T11:51:48;1.83;;;1.10;;
60060;SDS011;45933;51.336;12.612;2022-12-29T11:54:20;3.53;;;1.85;;
60060;SDS011;45933;51.336;12.612;2022-12-29T11:56:49;2.35;;;1.10;;
60060;SDS011;45933;51.336;12.612;2022-12-29T12:01:59;3.55;;;1.50;;
60060;SDS011;45933;51.336;12.612;2022-12-29T12:04:47;1.77;;;1.30;;
60060;SDS011;45933;51.336;12.612;2022-12-29T12:10:03;2.30;;;1.08;;
60060;SDS011;45933;51.336;12.612;2022-12-29T12:12:33;2.40;;;1.25;;
60060;SDS011;45933;51.336;12.612;2022-12-29T12:15:04;4.15;;;1.42;;
60060;SDS011;45933;51.336;12.612;2022-12-29T12:23:34;2.83;;;1.38;;
60060;SDS011;45933;51.336;12.612;2022-12-29T12:26:09;3.88;;;2.10;;
60060;SDS011;45933;51.336;12.612;2022-12-29T12:32:14;4.32;;;1.67;;
60060;SDS011;45933;51.336;12.612;2022-12-29T12:35:02;2.65;;;1.33;;
60060;SDS011;45933;51.336;12.612;2022-12-29T12:37:34;2.20;;;1.40;;
60060;SDS011;45933;51.336;12.612;2022-12-29T12:40:25;1.00;;;0.90;;
60060;SDS011;45933;51.336;12.612;2022-12-29T13:00:35;6.82;;;4.63;;
60060;SDS011;45933;51.336;12.612;2022-12-29T13:05:50;5.03;;;3.60;;
60060;SDS011;45933;51.336;12.612;2022-12-29T13:14:13;3.17;;;1.30;;
60060;SDS011;45933;51.336;12.612;2022-12-29T13:22:16;3.15;;;2.30;;
60060;SDS011;45933;51.336;12.612;2022-12-29T13:27:46;8.50;;;4.85;;
60060;SDS011;45933;51.336;12.612;2022-12-29T13:30:21;8.07;;;4.00;;
60060;SDS011;45933;51.336;12.612;2022-12-29T13:35:59;5.50;;;2.63;;
60060;SDS011;45933;51.336;12.612;2022-12-29T13:41:29;4.72;;;2.08;;
60060;SDS011;45933;51.336;12.612;2022-12-29T13:43:58;4.35;;;1.83;;
60060;SDS011;45933;51.336;12.612;2022-12-29T13:46:28;6.60;;;2.10;;
60060;SDS011;45933;51.336;12.612;2022-12-29T13:51:29;2.83;;;1.60;;
60060;SDS011;45933;51.336;12.612;2022-12-29T13:56:39;2.67;;;2.00;;
60060;SDS011;45933;51.336;12.612;2022-12-29T13:59:31;2.92;;;1.88;;
60060;SDS011;45933;51.336;12.612;2022-12-29T14:07:46;3.58;;;1.58;;
60060;SDS011;45933;51.336;12.612;2022-12-29T14:10:27;4.45;;;1.95;;
60060;SDS011;45933;51.336;12.612;2022-12-29T14:12:59;4.25;;;2.00;;
60060;SDS011;45933;51.336;12.612;2022-12-29T14:15:28;5.80;;;2.90;;
60060;SDS011;45933;51.336;12.612;2022-12-29T14:18:01;6.13;;;3.80;;
60060;SDS011;45933;51.336;12.612;2022-12-29T14:20:49;5.78;;;3.60;;
60060;SDS011;45933;51.336;12.612;2022-12-29T14:28:31;2.70;;;1.67;;
60060;SDS011;45933;51.336;12.612;2022-12-29T14:30:57;2.78;;;2.38;;
60060;SDS011;45933;51.336;12.612;2022-12-29T14:33:24;4.97;;;2.50;;
60060;SDS011;45933;51.336;12.612;2022-12-29T14:35:53;4.93;;;4.20;;
60060;SDS011;45933;51.336;12.612;2022-12-29T14:38:23;7.28;;;5.70;;
60060;SDS011;45933;51.336;12.612;2022-12-29T14:40:51;4.32;;;3.03;;
60060;SDS011;45933;51.336;12.612;2022-12-29T14:43:18;4.25;;;2.72;;
60060;SDS011;45933;51.336;12.612;2022-12-29T14:45:52;25.45;;;7.53;;
60060;SDS011;45933;51.336;12.612;2022-12-29T14:48:30;19.88;;;7.43;;
60060;SDS011;45933;51.336;12.612;2022-12-29T14:50:59;21.10;;;8.57;;
60060;SDS011;45933;51.336;12.612;2022-12-29T14:53:45;12.20;;;6.57;;
60060;SDS011;45933;51.336;12.612;2022-12-29T14:56:13;14.55;;;7.10;;
60060;SDS011;45933;51.336;12.612;2022-12-29T14:58:43;28.08;;;13.77;;
60060;SDS011;45933;51.336;12.612;2022-12-29T15:03:51;18.17;;;8.90;;
60060;SDS011;45933;51.336;12.612;2022-12-29T15:06:28;26.13;;;14.65;;
60060;SDS011;45933;51.336;12.612;2022-12-29T15:11:21;8.18;;;5.75;;
60060;SDS011;45933;51.336;12.612;2022-12-29T15:13:48;5.57;;;1.95;;
60060;SDS011;45933;51.336;12.612;2022-12-29T15:16:29;3.20;;;2.15;;
60060;SDS011;45933;51.336;12.612;2022-12-29T15:18:56;6.07;;;2.17;;
60060;SDS011;45933;51.336;12.612;2022-12-29T15:21:26;3.45;;;1.65;;
60060;SDS011;45933;51.336;12.612;2022-12-29T15:23:54;2.13;;;1.50;;
60060;SDS011;45933;51.336;12.612;2022-12-29T15:26:20;4.38;;;2.38;;
60060;SDS011;45933;51.336;12.612;2022-12-29T15:28:48;7.13;;;3.53;;
60060;SDS011;45933;51.336;12.612;2022-12-29T15:31:16;8.77;;;4.38;;
60060;SDS011;45933;51.336;12.612;2022-12-29T15:33:44;10.82;;;3.83;;
60060;SDS011;45933;51.336;12.612;2022-12-29T15:36:13;24.92;;;7.78;;
60060;SDS011;45933;51.336;12.612;2022-12-29T15:38:45;9.45;;;3.70;;
60060;SDS011;45933;51.336;12.612;2022-12-29T15:41:19;7.22;;;3.10;;
60060;SDS011;45933;51.336;12.612;2022-12-29T15:46:57;4.90;;;2.45;;
60060;SDS011;45933;51.336;12.612;2022-12-29T15:49:26;33.92;;;15.65;;
60060;SDS011;45933;51.336;12.612;2022-12-29T15:51:52;9.57;;;6.13;;
60060;SDS011;45933;51.336;12.612;2022-12-29T15:54:18;6.93;;;4.30;;
60060;SDS011;45933;51.336;12.612;2022-12-29T15:56:45;9.47;;;5.73;;
60060;SDS011;45933;51.336;12.612;2022-12-29T15:59:30;8.25;;;5.18;;
60060;SDS011;45933;51.336;12.612;2022-12-29T16:01:58;4.03;;;3.03;;
60060;SDS011;45933;51.336;12.612;2022-12-29T16:04:26;4.57;;;2.33;;
60060;SDS011;45933;51.336;12.612;2022-12-29T16:06:55;4.10;;;2.00;;
60060;SDS011;45933;51.336;12.612;2022-12-29T16:09:43;4.00;;;2.40;;
60060;SDS011;45933;51.336;12.612;2022-12-29T16:12:19;3.50;;;2.20;;
60060;SDS011;45933;51.336;12.612;2022-12-29T16:14:48;5.43;;;3.10;;
60060;SDS011;45933;51.336;12.612;2022-12-29T16:17:20;5.03;;;2.80;;
60060;SDS011;45933;51.336;12.612;2022-12-29T16:19:52;8.07;;;3.17;;
60060;SDS011;45933;51.336;12.612;2022-12-29T16:22:24;5.53;;;2.70;;
60060;SDS011;45933;51.336;12.612;2022-12-29T16:24:59;4.63;;;2.07;;
60060;SDS011;45933;51.336;12.612;2022-12-29T16:27:30;6.43;;;2.50;;
60060;SDS011;45933;51.336;12.612;2022-12-29T16:30:03;4.17;;;1.73;;
60060;SDS011;45933;51.336;12.612;2022-12-29T16:32:45;5.03;;;1.73;;
60060;SDS011;45933;51.336;12.612;2022-12-29T16:35:20;2.87;;;1.90;;
60060;SDS011;45933;51.336;12.612;2022-12-29T16:37:45;3.57;;;2.30;;
60060;SDS011;45933;51.336;12.612;2022-12-29T16:42:47;5.93;;;3.10;;
60060;SDS011;45933;51.336;12.612;2022-12-29T16:47:48;3.67;;;2.40;;
60060;SDS011;45933;51.336;12.612;2022-12-29T16:50:17;5.50;;;2.47;;
60060;SDS011;45933;51.336;12.612;2022-12-29T16:52:48;6.00;;;3.00;;